Time;durP1;ratioP1;P1;durP2;ratioP2;P2;SDS_P1;SDS_P2;PMS_P1;PMS_P2;Temp;Humidity;BMP_temperature;BMP_pressure;BME280_temperature;BME280_humidity;BME280_pressure;Samples;Min_cycle;Max_cycle;Signal;HPM_P1;HPM_P2
2023/11/20 00:00:24;;;;;;;7.83;3.37;;;;;;;9.05;100.00;102744.78;5008278;28;21061;-81
2023/11/20 00:02:50;;;;;;;6.90;2.50;;;;;;;7.70;100.00;102494.25;5007917;28;20193;-81
2023/11/20 00:05:18;;;;;;;8.70;3.50;;;;;;;8.13;100.00;102582.03;5015603;28;20472;-81
2023/11/20 00:07:43;;;;;;;8.63;3.27;;;;;;;8.77;100.00;102714.38;5000692;28;20452;-81
2023/11/20 00:10:09;;;;;;;11.27;3.63;;;;;;;7.68;100.00;102549.63;5017702;28;20451;-81
2023/11/20 00:12:35;;;;;;;8.60;3.47;;;;;;;8.09;100.00;102572.56;5019923;28;20199;-81
2023/11/20 00:15:00;;;;;;;7.80;3.20;;;;;;;9.12;100.00;102726.31;5002971;28;20213;-81
2023/11/20 00:17:26;;;;;;;7.90;3.40;;;;;;;10.19;100.00;102902.94;5004942;28;20193;-80
2023/11/20 00:19:52;;;;;;;7.07;3.70;;;;;;;8.32;100.00;102665.88;5002445;28;20189;-81
2023/11/20 00:22:17;;;;;;;6.30;3.20;;;;;;;7.33;100.00;102449.50;5001286;28;20184;-81
2023/11/20 00:24:43;;;;;;;7.20;3.13;;;;;;;7.58;100.00;102487.31;5007286;28;20480;-81
2023/11/20 00:27:09;;;;;;;7.30;2.70;;;;;;;8.71;100.00;102631.16;5006746;28;20193;-81
2023/11/20 00:29:37;;;;;;;6.67;3.47;;;;;;;8.59;100.00;102697.31;5002915;28;20185;-81
2023/11/20 00:32:03;;;;;;;4.40;2.30;;;;;;;8.06;100.00;102572.03;5019355;28;20645;-81
2023/11/20 00:34:28;;;;;;;8.13;3.60;;;;;;;9.27;100.00;102780.28;5021087;28;21002;-81
2023/11/20 00:36:54;;;;;;;7.87;2.90;;;;;;;8.07;100.00;102587.94;5018996;28;20197;-81
2023/11/20 00:39:19;;;;;;;5.30;2.37;;;;;;;8.74;100.00;102677.19;5001802;28;20285;-81
2023/11/20 00:41:45;;;;;;;6.03;2.13;;;;;;;10.21;100.00;102927.75;5002062;28;20541;-81
2023/11/20 00:44:13;;;;;;;5.53;2.20;;;;;;;8.03;100.00;102542.91;5019966;28;20674;-81
2023/11/20 00:46:39;;;;;;;7.57;2.70;;;;;;;9.32;100.00;102704.88;5021397;28;20188;-80
2023/11/20 00:49:05;;;;;;;6.93;2.00;;;;;;;7.31;100.00;102439.94;5010805;28;21090;-81
2023/11/20 00:51:31;;;;;;;6.33;1.87;;;;;;;9.89;100.00;102820.88;5024777;28;20440;-81
2023/11/20 00:53:57;;;;;;;6.10;2.57;;;;;;;10.29;100.00;102893.03;5011262;28;20456;-80
2023/11/20 00:56:22;;;;;;;7.87;2.10;;;;;;;9.54;100.00;102781.34;5007927;28;20467;-80
2023/11/20 00:58:48;;;;;;;5.10;1.87;;;;;;;10.12;100.00;102873.16;5004806;28;20623;-80
2023/11/20 01:01:13;;;;;;;4.30;1.83;;;;;;;9.72;100.00;102811.78;5023566;28;20240;-81
2023/11/20 01:03:39;;;;;;;5.40;2.30;;;;;;;10.33;100.00;102971.41;5003953;28;20232;-80
2023/11/20 01:06:06;;;;;;;5.37;2.40;;;;;;;10.02;100.00;102876.88;5008407;28;20195;-80
2023/11/20 01:08:32;;;;;;;4.37;2.20;;;;;;;9.37;100.00;102796.31;5022794;28;20440;-80
2023/11/20 01:10:57;;;;;;;4.77;2.33;;;;;;;9.73;100.00;102835.75;5010998;28;20534;-81
2023/11/20 01:13:23;;;;;;;6.67;2.67;;;;;;;9.61;100.00;102830.69;5010108;28;20606;-81
2023/11/20 01:15:48;;;;;;;5.03;2.40;;;;;;;9.38;100.00;102795.34;5008820;28;20657;-80
2023/11/20 01:18:16;;;;;;;4.50;2.47;;;;;;;8.93;100.00;102732.53;5010596;28;20185;-81
2023/11/20 01:20:44;;;;;;;4.83;2.37;;;;;;;9.23;100.00;102782.41;5010343;28;20200;-80
2023/11/20 01:23:09;;;;;;;4.77;2.50;;;;;;;9.74;100.00;102882.97;5010268;28;20468;-80
2023/11/20 01:25:35;;;;;;;5.67;2.70;;;;;;;10.22;100.00;102937.50;5011236;28;20476;-80
2023/11/20 01:28:00;;;;;;;5.03;2.90;;;;;;;8.98;100.00;102777.59;5009673;28;20212;-80
2023/11/20 01:30:26;;;;;;;5.60;2.53;;;;;;;9.54;100.00;102849.16;5008723;28;20197;-81
2023/11/20 01:32:52;;;;;;;5.73;2.57;;;;;;;9.86;100.00;102907.78;5010642;28;20521;-80
2023/11/20 01:35:18;;;;;;;5.20;2.63;;;;;;;9.69;100.00;102882.59;5024427;28;21751;-80
2023/11/20 01:37:43;;;;;;;4.50;2.57;;;;;;;10.19;100.00;102978.88;5009598;28;20836;-80
2023/11/20 01:40:12;;;;;;;4.90;3.20;;;;;;;9.45;100.00;102847.34;5007114;28;20608;-80
2023/11/20 01:42:38;;;;;;;3.90;2.40;;;;;;;9.31;100.00;102821.81;5027229;28;20189;-81
2023/11/20 01:45:04;;;;;;;6.10;2.50;;;;;;;9.98;100.00;102926.38;5022755;28;20476;-81
2023/11/20 01:47:29;;;;;;;5.13;2.70;;;;;;;9.54;100.00;102873.28;5026691;28;20193;-81
2023/11/20 01:49:55;;;;;;;5.50;3.30;;;;;;;9.66;100.00;102877.50;5008910;28;20519;-82
2023/11/20 01:52:23;;;;;;;5.90;3.00;;;;;;;9.27;100.00;102836.50;5007908;28;20185;-80
2023/11/20 01:54:49;;;;;;;5.30;3.47;;;;;;;9.31;100.00;102845.94;5025179;28;20487;-81
2023/11/20 01:57:15;;;;;;;4.70;2.73;;;;;;;9.09;100.00;102798.88;5007242;28;20523;-80
2023/11/20 01:59:41;;;;;;;8.63;3.47;;;;;;;9.45;100.00;102829.44;5005311;28;20196;-81
2023/11/20 02:02:06;;;;;;;7.97;3.30;;;;;;;10.10;100.00;102979.72;5009879;28;20279;-81
2023/11/20 02:04:34;;;;;;;7.47;3.77;;;;;;;10.09;100.00;102948.53;5007751;28;20574;-81
2023/11/20 02:06:59;;;;;;;6.60;3.73;;;;;;;9.17;100.00;102795.47;5023442;28;20181;-80
2023/11/20 02:09:24;;;;;;;5.57;3.43;;;;;;;9.86;100.00;102902.41;5009699;28;20492;-80
2023/11/20 02:11:50;;;;;;;6.07;3.70;;;;;;;9.98;100.00;102918.34;5009184;28;20205;-81
2023/11/20 02:14:16;;;;;;;8.10;3.63;;;;;;;9.82;100.00;102892.16;5010064;28;20630;-81
2023/11/20 02:16:42;;;;;;;6.23;4.10;;;;;;;9.81;100.00;102896.66;5007932;28;20484;-81
2023/11/20 02:19:14;;;;;;;6.90;4.67;;;;;;;9.47;100.00;102831.97;5007867;28;20231;-81
2023/11/20 02:21:40;;;;;;;5.10;3.60;;;;;;;9.62;100.00;102862.69;5002915;28;20263;-81
2023/11/20 02:24:06;;;;;;;5.97;3.60;;;;;;;9.91;100.00;102916.25;5007440;28;20550;-80
2023/11/20 02:27:14;;;;;;;7.20;4.10;;;;;;;9.58;100.00;102887.25;5025565;28;20483;-81
2023/11/20 02:29:47;;;;;;;7.87;3.90;;;;;;;9.52;100.00;102888.66;4931700;28;20448;-81
2023/11/20 02:32:12;;;;;;;6.47;4.00;;;;;;;10.01;100.00;102960.94;5006856;28;20524;-80
2023/11/20 02:34:38;;;;;;;6.90;4.20;;;;;;;9.62;100.00;102900.19;5004258;28;20460;-81
2023/11/20 02:37:04;;;;;;;8.20;4.77;;;;;;;9.64;100.00;102894.72;5024246;28;20181;-80
2023/11/20 02:39:30;;;;;;;7.97;5.13;;;;;;;9.34;100.00;102840.28;5025261;28;20200;-81
2023/11/20 02:41:55;;;;;;;6.67;4.60;;;;;;;10.01;100.00;102972.56;5022149;28;20435;-80
2023/11/20 02:44:21;;;;;;;7.00;4.53;;;;;;;9.51;100.00;102876.22;5005128;28;20225;-80
2023/11/20 02:46:46;;;;;;;6.57;4.57;;;;;;;10.30;100.00;102985.06;5006770;28;20589;-81
2023/11/20 02:49:13;;;;;;;8.07;5.57;;;;;;;9.93;100.00;102914.28;5005237;28;20670;-81
2023/11/20 02:51:39;;;;;;;6.70;4.73;;;;;;;9.53;100.00;102868.06;5022402;28;20228;-81
2023/11/20 02:54:05;;;;;;;8.27;4.70;;;;;;;9.45;100.00;102850.84;5009206;28;20478;-81
2023/11/20 02:56:30;;;;;;;7.50;5.40;;;;;;;10.04;100.00;102953.50;5005246;28;20304;-81
2023/11/20 02:58:55;;;;;;;6.77;4.67;;;;;;;9.67;100.00;102943.50;5022484;28;23919;-80
2023/11/20 03:01:22;;;;;;;8.17;5.67;;;;;;;9.40;100.00;102852.28;5023739;28;20193;-81
2023/11/20 03:03:48;;;;;;;9.30;5.27;;;;;;;9.53;100.00;102858.19;5007124;28;20670;-81
2023/11/20 03:06:13;;;;;;;9.97;5.50;;;;;;;9.55;100.00;102868.78;5008312;28;20464;-80
2023/11/20 03:08:39;;;;;;;9.63;5.20;;;;;;;9.47;100.00;102864.97;5006476;28;20192;-81
2023/11/20 03:11:04;;;;;;;8.17;5.37;;;;;;;9.94;100.00;102912.44;5006513;28;20205;-80
2023/11/20 03:13:30;;;;;;;7.17;4.70;;;;;;;9.27;100.00;102815.09;5005751;28;20202;-81
2023/11/20 03:15:56;;;;;;;11.67;5.80;;;;;;;9.30;100.00;102824.66;5009923;28;20189;-80
2023/11/20 03:18:22;;;;;;;8.57;5.70;;;;;;;9.62;100.00;102868.06;5008544;28;20271;-81
2023/11/20 03:20:48;;;;;;;8.87;5.47;;;;;;;9.37;100.00;102831.13;5007775;28;20436;-81
2023/11/20 03:23:13;;;;;;;9.07;6.00;;;;;;;9.56;100.00;102857.06;5020722;28;20452;-81
2023/11/20 03:25:40;;;;;;;10.17;5.53;;;;;;;9.51;100.00;102846.78;5012697;28;20214;-80
2023/11/20 03:28:05;;;;;;;7.97;4.50;;;;;;;9.04;100.00;102810.00;5010585;28;20584;-81
2023/11/20 03:30:32;;;;;;;9.50;4.40;;;;;;;9.48;100.00;102872.00;5008101;28;20548;-81
2023/11/20 03:32:58;;;;;;;8.63;5.87;;;;;;;10.19;100.00;102994.97;5022314;28;20193;-81
2023/11/20 03:35:23;;;;;;;9.50;5.53;;;;;;;9.39;100.00;102874.69;5006469;28;20432;-81
2023/11/20 03:37:49;;;;;;;8.77;5.10;;;;;;;9.88;100.00;102927.25;5008038;28;20543;-81
2023/11/20 03:40:14;;;;;;;9.90;5.73;;;;;;;9.01;100.00;102788.88;5004819;28;20212;-81
2023/11/20 03:42:40;;;;;;;8.27;5.67;;;;;;;9.62;100.00;102896.69;5005896;28;20228;-81
2023/11/20 03:45:06;;;;;;;8.47;5.77;;;;;;;10.30;100.00;103009.22;5024569;28;20375;-80
2023/11/20 03:47:31;;;;;;;9.00;5.97;;;;;;;9.98;100.00;102951.38;5005973;28;20197;-81
2023/11/20 03:49:57;;;;;;;9.40;6.63;;;;;;;10.22;100.00;102993.81;5006074;28;21205;-81
2023/11/20 03:52:22;;;;;;;8.63;5.30;;;;;;;9.93;100.00;102938.41;5008941;28;20196;-81
2023/11/20 03:54:47;;;;;;;10.10;6.20;;;;;;;9.81;100.00;102957.47;5006216;28;20201;-80
2023/11/20 03:57:13;;;;;;;8.20;5.63;;;;;;;10.13;100.00;102959.84;5007692;28;20201;-80
2023/11/20 03:59:38;;;;;;;13.33;5.27;;;;;;;9.77;100.00;102935.44;5007326;28;20196;-81
2023/11/20 04:02:04;;;;;;;7.93;5.30;;;;;;;9.62;100.00;102889.47;5007365;28;20295;-81
2023/11/20 04:04:29;;;;;;;8.03;5.30;;;;;;;9.68;100.00;102893.44;5008410;28;20947;-81
2023/11/20 04:06:54;;;;;;;7.37;4.90;;;;;;;9.28;100.00;102855.09;5009350;28;20642;-81
2023/11/20 04:09:20;;;;;;;7.40;4.80;;;;;;;9.54;100.00;102892.03;5008778;28;20180;-81
2023/11/20 04:11:45;;;;;;;7.60;5.43;;;;;;;9.89;100.00;102941.50;5010640;28;20196;-81
2023/11/20 04:14:11;;;;;;;7.10;4.30;;;;;;;8.53;100.00;102725.50;5007426;28;20265;-81
2023/11/20 04:16:36;;;;;;;7.23;4.13;;;;;;;9.84;100.00;102920.50;5006599;28;20574;-81
2023/11/20 04:19:03;;;;;;;7.40;3.70;;;;;;;10.42;100.00;103013.44;5007945;28;20590;-81
2023/11/20 04:21:30;;;;;;;6.57;4.00;;;;;;;9.52;100.00;102853.84;5001137;28;20193;-81
2023/11/20 04:23:56;;;;;;;6.23;3.70;;;;;;;9.84;100.00;102887.50;5008245;28;20530;-80
2023/11/20 04:26:21;;;;;;;6.80;4.40;;;;;;;9.88;100.00;102931.78;5008664;28;20924;-81
2023/11/20 04:28:47;;;;;;;7.37;4.27;;;;;;;9.45;100.00;102863.41;5023302;28;20663;-81
2023/11/20 04:31:13;;;;;;;5.40;3.50;;;;;;;10.38;100.00;103014.72;5008293;28;20194;-81
2023/11/20 04:33:42;;;;;;;6.20;3.67;;;;;;;9.69;100.00;102890.63;5005319;28;20220;-81
2023/11/20 04:36:08;;;;;;;5.70;3.77;;;;;;;9.81;100.00;102931.50;5008389;28;20618;-81
2023/11/20 04:38:35;;;;;;;6.50;3.80;;;;;;;9.71;100.00;102885.09;5004760;28;20849;-81
2023/11/20 04:41:01;;;;;;;6.10;3.40;;;;;;;10.38;100.00;103028.97;5024517;28;20432;-81
2023/11/20 04:43:26;;;;;;;5.90;3.37;;;;;;;10.05;100.00;102943.63;5009159;28;21011;-81
2023/11/20 04:45:51;;;;;;;6.60;4.10;;;;;;;10.54;100.00;103020.34;5005161;28;20212;-81
2023/11/20 04:48:17;;;;;;;5.50;3.40;;;;;;;9.70;100.00;102881.59;5004730;28;20280;-81
2023/11/20 04:50:43;;;;;;;6.10;3.60;;;;;;;10.40;100.00;103035.03;5005230;28;20222;-81
2023/11/20 04:53:09;;;;;;;6.20;4.03;;;;;;;10.19;100.00;102962.78;5002161;28;20886;-82
2023/11/20 04:55:34;;;;;;;6.33;4.17;;;;;;;9.61;100.00;102882.44;5005910;28;20591;-81
2023/11/20 04:58:00;;;;;;;7.17;4.67;;;;;;;9.51;100.00;102857.47;5004851;28;20213;-81
2023/11/20 05:00:26;;;;;;;7.23;4.70;;;;;;;9.93;100.00;102922.31;5022758;28;20193;-81
2023/11/20 05:02:51;;;;;;;7.90;4.67;;;;;;;10.38;100.00;102975.31;5005147;28;20541;-81
2023/11/20 05:05:16;;;;;;;6.40;4.27;;;;;;;10.29;100.00;102991.44;5006442;28;20313;-81
2023/11/20 05:07:42;;;;;;;7.43;4.70;;;;;;;9.97;100.00;102952.34;5012030;28;20431;-81
2023/11/20 05:10:08;;;;;;;7.33;5.00;;;;;;;10.02;100.00;102954.63;5025517;28;20231;-81
2023/11/20 05:12:33;;;;;;;9.03;5.80;;;;;;;10.05;100.00;102973.09;5008190;28;20194;-81
2023/11/20 05:14:59;;;;;;;6.93;4.30;;;;;;;10.39;100.00;103024.47;5006760;28;20467;-81
2023/11/20 05:17:24;;;;;;;6.87;4.77;;;;;;;9.84;100.00;102930.38;5008516;28;20197;-81
2023/11/20 05:19:49;;;;;;;8.07;5.30;;;;;;;9.73;100.00;102908.09;5008577;28;20185;-81
2023/11/20 05:22:17;;;;;;;6.60;4.20;;;;;;;9.80;100.00;102918.25;5003646;28;20224;-81
2023/11/20 05:24:42;;;;;;;8.27;4.80;;;;;;;10.43;100.00;103017.81;5008507;28;20324;-81
2023/11/20 05:27:09;;;;;;;7.93;4.47;;;;;;;9.95;100.00;102967.72;5005016;28;20447;-80
2023/11/20 05:29:37;;;;;;;7.20;4.17;;;;;;;10.54;100.00;103057.06;5027163;28;20647;-80
2023/11/20 05:32:06;;;;;;;9.43;4.67;;;;;;;9.27;100.00;102834.66;5021803;28;20439;-81
2023/11/20 05:34:33;;;;;;;12.30;5.30;;;;;;;9.87;100.00;102940.81;5022317;28;20484;-81
2023/11/20 05:36:59;;;;;;;7.43;4.30;;;;;;;10.39;100.00;103021.78;5027468;28;20995;-81
2023/11/20 05:39:24;;;;;;;9.63;4.33;;;;;;;9.88;100.00;102953.22;5010774;28;20451;-81
2023/11/20 05:41:50;;;;;;;8.57;4.33;;;;;;;10.15;100.00;102964.06;5026312;28;20438;-81
2023/11/20 05:44:15;;;;;;;6.80;3.80;;;;;;;9.87;100.00;102947.03;5009045;28;20690;-81
2023/11/20 05:46:41;;;;;;;7.70;3.90;;;;;;;10.18;100.00;102981.69;5029383;28;20201;-81
2023/11/20 05:49:07;;;;;;;6.40;3.60;;;;;;;9.51;100.00;102878.91;5012522;28;20196;-81
2023/11/20 05:51:32;;;;;;;7.17;3.93;;;;;;;10.01;100.00;102932.34;5012147;28;20196;-81
2023/11/20 05:53:58;;;;;;;5.73;3.00;;;;;;;9.64;100.00;102898.25;5011847;28;20497;-81
2023/11/20 05:56:29;;;;;;;8.40;3.70;;;;;;;9.94;100.00;102934.72;5009430;28;20200;-81
2023/11/20 05:58:54;;;;;;;7.07;3.87;;;;;;;9.50;100.00;102880.75;5028345;23;20184;-76
2023/11/20 06:01:47;;;;;;;;;;;;;;;;;;;;;
2023/11/20 06:04:14;;;;;;;4.80;2.50;;;;;;;9.63;100.00;102883.16;5030181;28;20284;-76
2023/11/20 06:06:39;;;;;;;5.37;2.67;;;;;;;8.76;100.00;102746.59;5001890;28;20437;-76
2023/11/20 06:09:05;;;;;;;5.40;2.60;;;;;;;10.67;100.00;103035.25;5003768;28;20463;-76
2023/11/20 06:11:32;;;;;;;6.27;2.60;;;;;;;8.79;100.00;102783.78;5006074;28;20189;-76
2023/11/20 06:14:00;;;;;;;4.20;2.20;;;;;;;9.61;100.00;102914.59;5020465;28;20952;-76
2023/11/20 06:16:26;;;;;;;4.47;2.63;;;;;;;8.89;100.00;102784.66;5005920;28;20956;-77
2023/11/20 06:18:52;;;;;;;4.00;1.80;;;;;;;9.23;100.00;102870.75;5008898;28;20547;-77
2023/11/20 06:21:17;;;;;;;3.33;1.60;;;;;;;9.32;100.00;102860.19;5008173;28;20236;-76
2023/11/20 06:23:43;;;;;;;5.03;2.00;;;;;;;8.93;100.00;102774.50;5005996;28;20193;-76
2023/11/20 06:26:09;;;;;;;4.27;2.33;;;;;;;8.51;100.00;102694.53;5006333;28;20820;-76
2023/11/20 06:28:34;;;;;;;4.60;2.50;;;;;;;8.57;100.00;102745.63;5003871;28;20186;-76
2023/11/20 06:31:00;;;;;;;3.33;1.70;;;;;;;9.56;100.00;102844.50;5005128;28;20192;-76
2023/11/20 06:33:25;;;;;;;3.30;1.73;;;;;;;9.09;100.00;102831.00;5006514;28;20211;-76
2023/11/20 06:35:50;;;;;;;3.00;1.47;;;;;;;9.02;100.00;102781.69;5003625;28;20176;-76
2023/11/20 06:38:16;;;;;;;3.97;2.10;;;;;;;8.14;100.00;102629.16;5003536;28;20182;-76
2023/11/20 06:40:42;;;;;;;2.47;1.10;;;;;;;9.92;100.00;102935.84;5019629;28;20177;-76
2023/11/20 06:43:08;;;;;;;3.10;1.33;;;;;;;8.56;100.00;102710.97;5008052;28;20916;-76
2023/11/20 06:45:34;;;;;;;2.90;1.40;;;;;;;9.90;100.00;102992.31;5002642;28;20460;-76
2023/11/20 06:48:00;;;;;;;2.80;1.33;;;;;;;9.98;100.00;103031.81;5007761;28;20483;-76
2023/11/20 06:50:28;;;;;;;3.07;1.47;;;;;;;9.51;100.00;102911.06;5007354;28;20453;-76
2023/11/20 06:52:56;;;;;;;3.40;1.00;;;;;;;8.56;100.00;102759.97;5000867;28;20435;-76
2023/11/20 06:55:22;;;;;;;3.17;1.13;;;;;;;9.02;100.00;102835.22;5009405;28;20424;-77
2023/11/20 06:57:48;;;;;;;3.13;1.57;;;;;;;9.68;100.00;102947.88;5007164;28;20511;-76
2023/11/20 07:00:14;;;;;;;2.73;1.23;;;;;;;9.11;100.00;102887.06;5003950;28;20535;-77
2023/11/20 07:02:42;;;;;;;3.00;1.30;;;;;;;8.57;100.00;102764.34;5008916;28;20188;-77
2023/11/20 07:05:08;;;;;;;2.73;1.00;;;;;;;10.67;100.00;103156.88;5000501;28;20216;-76
2023/11/20 07:07:42;;;;;;;2.67;0.90;;;;;;;9.20;100.00;102895.13;5004478;28;20459;-77
2023/11/20 07:10:11;;;;;;;3.17;0.87;;;;;;;9.49;100.00;102932.66;5020883;28;20436;-77
2023/11/20 07:12:40;;;;;;;2.90;0.90;;;;;;;9.25;100.00;102881.31;5006922;28;20963;-77
2023/11/20 07:15:07;;;;;;;3.90;0.90;;;;;;;8.95;100.00;102863.53;5006425;28;20448;-77
2023/11/20 07:17:33;;;;;;;3.43;1.30;;;;;;;9.15;100.00;102897.38;5008923;28;20450;-77
2023/11/20 07:19:59;;;;;;;2.60;1.10;;;;;;;9.00;100.00;102864.81;5005859;28;20433;-77
2023/11/20 07:22:27;;;;;;;2.70;1.00;;;;;;;9.42;100.00;102947.56;5006202;28;20971;-77
2023/11/20 07:24:52;;;;;;;2.77;1.00;;;;;;;8.40;100.00;102770.34;5004880;28;21155;-77
2023/11/20 07:27:17;;;;;;;2.87;1.10;;;;;;;9.18;100.00;102918.53;5023342;28;20434;-77
2023/11/20 07:29:43;;;;;;;4.40;1.50;;;;;;;8.69;100.00;102853.34;5006858;28;20702;-77
2023/11/20 07:32:09;;;;;;;3.13;1.10;;;;;;;9.11;100.00;102903.13;5019530;28;20185;-77
2023/11/20 07:34:35;;;;;;;3.63;1.20;;;;;;;8.11;100.00;102725.66;5020079;28;20206;-77
2023/11/20 07:37:01;;;;;;;3.20;1.27;;;;;;;9.14;100.00;102929.63;5023034;28;20185;-77
2023/11/20 07:39:26;;;;;;;2.50;0.93;;;;;;;8.47;100.00;102767.97;5022621;28;20803;-77
2023/11/20 07:41:52;;;;;;;3.90;1.00;;;;;;;8.47;100.00;102776.00;5006134;28;20232;-77
2023/11/20 07:44:17;;;;;;;3.60;1.10;;;;;;;9.62;100.00;102961.00;5006768;28;20213;-77
2023/11/20 07:46:43;;;;;;;2.93;1.00;;;;;;;8.60;100.00;102814.03;5016922;28;20192;-77
2023/11/20 07:49:09;;;;;;;3.80;1.20;;;;;;;9.12;100.00;102929.78;5005525;28;20188;-77
2023/11/20 07:51:34;;;;;;;3.90;1.13;;;;;;;8.36;100.00;102771.56;5005907;28;20192;-77
2023/11/20 07:54:00;;;;;;;3.40;1.10;;;;;;;8.35;100.00;102777.91;5005953;28;20890;-77
2023/11/20 07:56:27;;;;;;;2.60;1.00;;;;;;;8.44;100.00;102777.09;5005836;28;20185;-78
2023/11/20 07:58:52;;;;;;;2.20;0.70;;;;;;;8.36;100.00;102801.84;5006464;28;20334;-78
2023/11/20 08:01:18;;;;;;;2.67;0.90;;;;;;;9.70;100.00;103028.97;5025583;28;20909;-78
2023/11/20 08:03:44;;;;;;;5.10;0.93;;;;;;;8.40;100.00;102806.97;5023992;28;20213;-79
2023/11/20 08:06:09;;;;;;;3.43;0.80;;;;;;;8.46;100.00;102803.72;5007213;28;20754;-79
2023/11/20 08:08:35;;;;;;;2.20;0.70;;;;;;;9.53;100.00;102996.66;5022331;28;20432;-78
2023/11/20 08:11:00;;;;;;;2.20;0.70;;;;;;;8.56;100.00;102808.13;5006756;28;20185;-79
2023/11/20 08:13:26;;;;;;;2.20;0.70;;;;;;;8.01;100.00;102708.72;5024750;28;20572;-79
2023/11/20 08:15:57;;;;;;;2.20;0.60;;;;;;;8.93;100.00;102913.69;5010127;28;20564;-79
2023/11/20 08:18:25;;;;;;;2.50;0.80;;;;;;;9.85;100.00;103007.13;5010239;28;20919;-79
2023/11/20 08:20:51;;;;;;;2.60;0.80;;;;;;;9.12;100.00;102886.09;5023977;28;20523;-79
2023/11/20 08:23:16;;;;;;;2.10;0.60;;;;;;;9.47;100.00;102950.69;5009423;28;20282;-79
2023/11/20 08:25:42;;;;;;;2.93;0.67;;;;;;;10.30;100.00;103101.28;5030731;23;20598;-70
2023/11/20 08:28:07;;;;;;;4.00;0.53;;;;;;;9.85;100.00;103033.91;5019820;28;20655;-70
2023/11/20 08:30:34;;;;;;;3.10;0.70;;;;;;;10.29;100.00;103104.09;5017999;28;20239;-70
2023/11/20 08:32:59;;;;;;;3.23;0.87;;;;;;;10.27;100.00;103098.88;5016427;28;20197;-70
2023/11/20 08:35:25;;;;;;;2.77;0.60;;;;;;;9.94;100.00;103047.31;5022865;28;20444;-70
2023/11/20 08:37:50;;;;;;;2.20;0.60;;;;;;;10.08;100.00;103064.81;5017849;28;22515;-70
2023/11/20 08:40:16;;;;;;;2.77;0.67;;;;;;;10.34;100.00;103093.78;5021172;28;20184;-70
2023/11/20 08:42:41;;;;;;;2.20;0.80;;;;;;;10.34;100.00;103094.63;5025756;28;20200;-70
2023/11/20 08:45:07;;;;;;;2.73;0.90;;;;;;;9.85;100.00;103018.69;5023085;28;20300;-70
2023/11/20 08:47:35;;;;;;;2.30;0.80;;;;;;;10.24;100.00;103122.41;5023861;28;20192;-70
2023/11/20 08:50:02;;;;;;;3.17;1.00;;;;;;;10.39;100.00;103110.31;5021859;28;20434;-70
2023/11/20 08:52:28;;;;;;;2.63;1.00;;;;;;;10.27;100.00;103103.38;5022018;28;20549;-71
2023/11/20 08:54:55;;;;;;;2.60;0.80;;;;;;;10.30;100.00;103103.97;5035007;28;20505;-70
2023/11/20 08:57:21;;;;;;;2.40;0.70;;;;;;;9.98;100.00;103039.00;5021749;28;20340;-70
2023/11/20 08:59:47;;;;;;;2.67;0.60;;;;;;;9.96;100.00;103034.63;5021048;28;20450;-70
2023/11/20 09:02:12;;;;;;;3.00;0.70;;;;;;;10.28;100.00;103083.63;5020327;28;20455;-70
2023/11/20 09:04:37;;;;;;;2.30;0.70;;;;;;;10.28;100.00;103080.97;5030804;28;20215;-70
2023/11/20 09:07:03;;;;;;;2.50;0.70;;;;;;;10.34;100.00;103075.00;5026131;28;20258;-70
2023/11/20 09:09:29;;;;;;;2.43;0.60;;;;;;;10.31;100.00;103081.50;5041269;28;20235;-70
2023/11/20 09:11:55;;;;;;;2.30;0.60;;;;;;;10.29;100.00;103074.59;5024014;28;20568;-70
2023/11/20 09:14:20;;;;;;;2.20;0.70;;;;;;;10.27;100.00;103066.69;5022595;28;20521;-70
2023/11/20 09:16:45;;;;;;;2.37;0.70;;;;;;;10.34;100.00;103069.66;5026318;28;20263;-70
2023/11/20 09:19:11;;;;;;;2.73;0.90;;;;;;;9.92;100.00;103009.09;5026632;28;20188;-70
2023/11/20 09:21:36;;;;;;;2.97;0.80;;;;;;;10.25;100.00;103052.53;5024208;28;20193;-70
2023/11/20 09:24:02;;;;;;;3.30;0.73;;;;;;;9.74;100.00;102974.09;5024474;28;20192;-70
2023/11/20 09:26:27;;;;;;;3.50;0.70;;;;;;;10.32;100.00;103051.00;5027381;28;20671;-70
2023/11/20 09:28:53;;;;;;;2.47;0.70;;;;;;;10.01;100.00;103003.84;5042198;28;20192;-70
2023/11/20 09:31:19;;;;;;;3.03;1.00;;;;;;;10.09;100.00;103012.03;5023035;28;20572;-70
2023/11/20 09:33:46;;;;;;;3.30;0.80;;;;;;;10.19;100.00;103024.47;5022668;28;20188;-70
2023/11/20 09:36:11;;;;;;;3.47;1.10;;;;;;;10.05;100.00;102982.00;5025536;28;20467;-71
2023/11/20 09:38:37;;;;;;;3.27;0.80;;;;;;;9.83;100.00;102936.72;5027291;28;20514;-70
2023/11/20 09:41:03;;;;;;;5.17;0.80;;;;;;;9.89;100.00;102923.59;5025557;28;20554;-70
2023/11/20 09:43:29;;;;;;;2.87;0.97;;;;;;;10.33;100.00;102996.38;5024831;28;20212;-70
2023/11/20 09:45:59;;;;;;;4.10;1.50;;;;;;;10.27;100.00;102988.03;5021218;28;20201;-70
2023/11/20 09:48:26;;;;;;;5.43;1.10;;;;;;;10.23;100.00;102987.47;5022637;28;20482;-70
2023/11/20 09:50:53;;;;;;;7.83;1.20;;;;;;;9.99;100.00;102926.25;5024537;28;20528;-70
2023/11/20 09:53:19;;;;;;;7.70;1.30;;;;;;;10.19;100.00;102940.47;5024584;28;20578;-70
2023/11/20 09:55:45;;;;;;;9.20;1.30;;;;;;;10.29;100.00;102941.31;5027320;28;21018;-70
2023/11/20 09:58:10;;;;;;;5.17;1.63;;;;;;;10.29;100.00;102946.69;5027588;28;20251;-70
2023/11/20 10:00:36;;;;;;;8.83;1.90;;;;;;;10.31;100.00;102938.50;5026897;28;20434;-70
2023/11/20 10:03:05;;;;;;;10.50;2.30;;;;;;;10.21;100.00;102908.13;5023602;28;20208;-70
2023/11/20 10:05:38;;;;;;;7.20;2.00;;;;;;;10.20;100.00;102899.25;5022034;28;20212;-70
2023/11/20 10:08:04;;;;;;;14.63;2.90;;;;;;;10.06;100.00;102867.53;5024674;28;20454;-70
2023/11/20 10:10:30;;;;;;;9.23;2.40;;;;;;;9.80;100.00;102811.88;5026413;28;20543;-70
2023/11/20 10:12:58;;;;;;;11.37;3.13;;;;;;;10.26;100.00;102876.38;5025033;28;20537;-70
2023/11/20 10:15:24;;;;;;;7.80;2.30;;;;;;;10.32;100.00;102867.75;5027786;28;20184;-70
2023/11/20 10:17:49;;;;;;;15.90;3.87;;;;;;;9.80;100.00;102758.28;5021422;28;20458;-70
2023/11/20 10:20:15;;;;;;;8.17;2.93;;;;;;;10.32;100.00;102822.16;5023817;28;20239;-71
2023/11/20 10:22:41;;;;;;;12.67;3.00;;;;;;;10.11;100.00;102772.25;5022542;28;20196;-70
2023/11/20 10:25:08;;;;;;;9.33;2.90;;;;;;;10.29;100.00;102774.19;5019706;28;20486;-70
2023/11/20 10:27:34;;;;;;;15.50;3.43;;;;;;;10.22;100.00;102725.63;5023328;28;20283;-70
2023/11/20 10:30:00;;;;;;;17.00;4.50;;;;;;;10.28;100.00;102697.41;5022416;28;20564;-69
2023/11/20 10:32:27;;;;;;;16.73;2.97;;;;;;;10.34;100.00;102681.53;5024912;28;20679;-70
2023/11/20 10:35:15;;;;;;;19.50;4.40;;;;;;;10.30;100.00;102639.06;5037692;28;20417;-70
2023/11/20 10:38:05;;;;;;;13.97;3.33;;;;;;;10.24;100.00;102602.97;5024499;28;20443;-70
2023/11/20 10:40:31;;;;;;;20.23;4.93;;;;;;;10.30;100.00;102572.88;5020018;28;20461;-70
2023/11/20 10:42:57;;;;;;;16.73;4.23;;;;;;;10.32;100.00;102549.41;5037106;28;20451;-70
2023/11/20 10:45:23;;;;;;;21.27;5.80;;;;;;;10.28;100.00;102523.06;5021201;28;20200;-71
2023/11/20 10:47:49;;;;;;;15.47;4.50;;;;;;;10.11;100.00;102474.63;5025529;28;20443;-70
2023/11/20 10:50:17;;;;;;;19.57;4.13;;;;;;;10.26;100.00;102477.59;5023022;28;20496;-70
2023/11/20 10:52:44;;;;;;;12.30;2.80;;;;;;;9.90;100.00;102397.25;5026983;28;20207;-71
2023/11/20 10:55:11;;;;;;;17.23;4.43;;;;;;;9.96;100.00;102383.22;5023214;28;20792;-71
2023/11/20 10:57:38;;;;;;;17.60;2.90;;;;;;;10.07;100.00;102403.56;5022128;28;20446;-71
2023/11/20 11:00:15;;;;;;;11.60;3.33;;;;;;;9.89;100.00;102375.94;5026179;28;20956;-71
2023/11/20 11:02:42;;;;;;;13.50;3.20;;;;;;;10.28;100.00;102405.06;5021626;28;20435;-70
2023/11/20 11:05:10;;;;;;;16.63;3.10;;;;;;;10.07;100.00;102383.97;5018844;28;21272;-71
2023/11/20 11:07:40;;;;;;;16.27;5.27;;;;;;;10.26;100.00;102378.34;5019207;28;20439;-69
2023/11/20 11:10:14;;;;;;;12.07;2.93;;;;;;;9.65;100.00;102264.09;5026579;28;20432;-69
2023/11/20 11:12:42;;;;;;;10.73;2.50;;;;;;;10.21;100.00;102342.28;5022202;28;20493;-68
2023/11/20 11:15:12;;;;;;;10.37;3.47;;;;;;;10.24;100.00;102334.78;5020961;28;20438;-70
2023/11/20 11:18:01;;;;;;;9.13;2.90;;;;;;;10.10;100.00;102287.13;5026640;28;20517;-70